Time;durP1;ratioP1;P1;durP2;ratioP2;P2;SDS_P1;SDS_P2;PMS_P1;PMS_P2;Temp;Humidity;BMP_temperature;BMP_pressure;BME280_temperature;BME280_humidity;BME280_pressure;Samples;Min_cycle;Max_cycle;Signal;HPM_P1;HPM_P2
2022/04/09 00:01:26;;;;;;;8.37;3.27;;;6.10;99.90;;;;;;5075004;28;20472;-69
2022/04/09 00:03:52;;;;;;;8.70;2.97;;;6.00;99.90;;;;;;5075180;28;20441;-69
2022/04/09 00:06:19;;;;;;;7.10;2.43;;;6.00;99.90;;;;;;5075165;28;20476;-69
2022/04/09 00:08:46;;;;;;;6.10;3.07;;;6.00;99.90;;;;;;5074825;28;20939;-68
2022/04/09 00:11:13;;;;;;;8.07;3.50;;;5.90;99.90;;;;;;5074964;28;20530;-69
2022/04/09 00:13:41;;;;;;;12.90;3.53;;;5.90;99.90;;;;;;5074438;28;20481;-68
2022/04/09 00:16:09;;;;;;;11.37;3.53;;;5.90;99.90;;;;;;5074798;28;20444;-68
2022/04/09 00:18:36;;;;;;;9.73;3.03;;;5.90;99.90;;;;;;5074612;28;20457;-68
2022/04/09 00:21:03;;;;;;;8.53;3.33;;;5.80;99.90;;;;;;5074653;28;20473;-68
2022/04/09 00:23:30;;;;;;;8.00;3.03;;;5.80;99.90;;;;;;5074540;28;20440;-69
2022/04/09 00:25:56;;;;;;;8.57;3.43;;;5.70;99.90;;;;;;5074593;28;20456;-69
2022/04/09 00:28:23;;;;;;;11.93;3.47;;;5.70;99.90;;;;;;5074649;28;20444;-68
2022/04/09 00:30:50;;;;;;;9.17;3.43;;;5.60;99.90;;;;;;5074273;28;21034;-69
2022/04/09 00:33:18;;;;;;;8.87;3.60;;;5.60;99.90;;;;;;5074434;28;20481;-69
2022/04/09 00:35:45;;;;;;;13.53;5.20;;;5.60;99.90;;;;;;5074163;28;20452;-69
2022/04/09 00:38:11;;;;;;;8.53;3.17;;;5.50;99.90;;;;;;5074294;28;20456;-69
2022/04/09 00:40:38;;;;;;;10.00;6.80;;;5.50;99.90;;;;;;5074324;28;20444;-69
2022/04/09 00:43:05;;;;;;;7.90;4.03;;;5.50;99.90;;;;;;5074287;28;20453;-69
2022/04/09 00:45:32;;;;;;;6.13;3.03;;;5.50;99.90;;;;;;5073944;28;20870;-69
2022/04/09 00:47:59;;;;;;;7.53;3.90;;;5.40;99.90;;;;;;5074080;28;20502;-69
2022/04/09 00:50:27;;;;;;;9.10;3.80;;;5.40;99.90;;;;;;5073717;28;20948;-69
2022/04/09 00:52:59;;;;;;;5.07;4.03;;;5.40;99.90;;;;;;5074052;28;20461;-68
2022/04/09 00:58:14;;;;;;;7.77;3.87;;;5.40;99.90;;;;;;5073543;28;20939;-69
2022/04/09 01:00:41;;;;;;;8.60;3.73;;;5.30;99.90;;;;;;5073876;28;20429;-69
2022/04/09 01:03:10;;;;;;;10.60;3.10;;;5.30;99.90;;;;;;5073982;28;20472;-68
2022/04/09 01:05:40;;;;;;;7.47;3.27;;;5.40;99.90;;;;;;5073825;28;20517;-68
2022/04/09 01:08:08;;;;;;;10.73;3.37;;;5.40;99.90;;;;;;5073834;28;20448;-69
2022/04/09 01:10:34;;;;;;;7.40;3.83;;;5.40;99.90;;;;;;5073975;28;20447;-69
2022/04/09 01:13:01;;;;;;;9.87;3.90;;;5.40;99.90;;;;;;5073852;28;20444;-69
2022/04/09 01:15:28;;;;;;;12.73;4.17;;;5.30;99.90;;;;;;5073694;28;20553;-68
2022/04/09 01:17:55;;;;;;;8.17;3.50;;;5.30;99.90;;;;;;5073617;28;20449;-68
2022/04/09 01:20:24;;;;;;;7.80;3.33;;;5.30;99.90;;;;;;5073406;28;20461;-68
2022/04/09 01:22:53;;;;;;;6.30;3.87;;;5.20;99.90;;;;;;5073790;28;20452;-68
2022/04/09 01:25:20;;;;;;;12.87;4.00;;;5.20;99.90;;;;;;5073620;28;20451;-69
2022/04/09 01:27:48;;;;;;;13.40;3.77;;;5.20;99.90;;;;;;5073646;28;20453;-69
2022/04/09 01:30:15;;;;;;;11.83;3.63;;;5.20;99.90;;;;;;5073620;28;20859;-69
2022/04/09 01:32:42;;;;;;;6.60;3.50;;;5.20;99.90;;;;;;5073410;28;20464;-68
2022/04/09 01:35:09;;;;;;;13.67;3.70;;;5.20;99.90;;;;;;5073363;28;20831;-69
2022/04/09 01:37:36;;;;;;;8.10;3.00;;;5.10;99.90;;;;;;5073414;28;20464;-69
2022/04/09 01:40:06;;;;;;;10.77;4.17;;;5.10;99.90;;;;;;5073135;28;20958;-69
2022/04/09 01:42:33;;;;;;;9.60;3.23;;;5.10;99.90;;;;;;5073239;28;20465;-68
2022/04/09 01:44:59;;;;;;;13.53;4.20;;;5.10;99.90;;;;;;5073322;28;20440;-68
2022/04/09 01:47:26;;;;;;;11.13;3.50;;;5.10;99.90;;;;;;5073407;28;20936;-69
2022/04/09 01:49:53;;;;;;;7.60;4.40;;;5.10;99.90;;;;;;5073239;28;20456;-69
2022/04/09 01:52:20;;;;;;;9.40;3.93;;;5.10;99.90;;;;;;5073197;28;20468;-68
2022/04/09 01:54:46;;;;;;;12.40;4.13;;;5.10;99.90;;;;;;5073269;28;20472;-68
2022/04/09 01:57:15;;;;;;;7.73;3.17;;;5.10;99.90;;;;;;5073250;28;20449;-69
2022/04/09 01:59:44;;;;;;;11.20;3.43;;;5.10;99.90;;;;;;5074825;28;20444;-69
2022/04/09 02:02:11;;;;;;;18.33;3.77;;;5.10;99.90;;;;;;5077197;28;20507;-69
2022/04/09 02:04:38;;;;;;;9.67;3.23;;;5.10;99.90;;;;;;5077237;28;20456;-69
2022/04/09 02:07:05;;;;;;;10.40;3.83;;;5.10;99.90;;;;;;5076940;28;20506;-69
2022/04/09 02:09:32;;;;;;;16.67;4.10;;;5.00;99.90;;;;;;5077198;28;20896;-68
2022/04/09 02:11:59;;;;;;;8.67;3.90;;;5.00;99.90;;;;;;5077130;28;20555;-68
2022/04/09 02:14:28;;;;;;;8.93;3.43;;;5.00;99.90;;;;;;5076895;28;20487;-68
2022/04/09 02:16:54;;;;;;;7.70;3.40;;;5.10;99.90;;;;;;5077158;28;20843;-68
2022/04/09 02:19:21;;;;;;;12.67;4.27;;;5.10;99.90;;;;;;5076759;28;20468;-69
2022/04/09 02:21:48;;;;;;;12.87;5.43;;;5.10;99.90;;;;;;5076844;28;20480;-68
2022/04/09 02:24:15;;;;;;;11.80;4.20;;;5.10;99.90;;;;;;5077086;28;20448;-68
2022/04/09 02:26:41;;;;;;;13.90;5.97;;;5.10;99.90;;;;;;5077021;28;20449;-69
2022/04/09 02:29:09;;;;;;;10.73;4.10;;;5.10;99.90;;;;;;5076797;28;20452;-69
2022/04/09 02:31:37;;;;;;;10.73;3.67;;;5.10;99.90;;;;;;5076685;28;20542;-68
2022/04/09 02:34:04;;;;;;;12.53;3.50;;;5.00;99.90;;;;;;5076648;28;20484;-69
2022/04/09 02:36:32;;;;;;;22.57;3.97;;;5.10;99.90;;;;;;5076602;28;20443;-69
2022/04/09 02:38:59;;;;;;;13.57;3.43;;;5.10;99.90;;;;;;5076601;28;20505;-68
2022/04/09 02:41:28;;;;;;;18.40;3.73;;;5.00;99.90;;;;;;5076136;28;20473;-69
2022/04/09 02:43:55;;;;;;;13.20;4.30;;;5.00;99.90;;;;;;5076645;28;20440;-68
2022/04/09 02:46:22;;;;;;;9.03;4.00;;;5.10;99.90;;;;;;5076490;28;20455;-69
2022/04/09 02:48:50;;;;;;;11.90;3.70;;;5.10;99.90;;;;;;5076354;28;20439;-69
2022/04/09 02:51:16;;;;;;;14.67;3.93;;;5.10;99.90;;;;;;5076502;28;20468;-69
2022/04/09 02:53:43;;;;;;;14.77;3.70;;;5.10;99.90;;;;;;5076281;28;20433;-69
2022/04/09 02:56:10;;;;;;;9.97;3.50;;;5.10;99.90;;;;;;5076374;28;20460;-69
2022/04/09 02:58:37;;;;;;;11.77;5.07;;;5.10;99.90;;;;;;5076298;28;20460;-69
2022/04/09 03:01:06;;;;;;;13.30;4.30;;;5.10;99.90;;;;;;5076215;28;20468;-68
2022/04/09 03:03:33;;;;;;;13.90;3.10;;;5.10;99.90;;;;;;5076227;28;20448;-69
2022/04/09 03:06:01;;;;;;;11.60;4.00;;;5.10;99.90;;;;;;5076107;28;20444;-69
2022/04/09 03:08:27;;;;;;;9.40;3.13;;;5.20;99.90;;;;;;5076168;28;20811;-69
2022/04/09 03:10:54;;;;;;;14.50;3.90;;;5.20;99.90;;;;;;5074645;28;20473;-69
2022/04/09 03:13:21;;;;;;;12.90;5.00;;;5.20;99.90;;;;;;5075900;28;20484;-68
2022/04/09 03:15:48;;;;;;;15.83;4.20;;;5.10;99.90;;;;;;5076168;28;20476;-69
2022/04/09 03:18:15;;;;;;;12.93;3.77;;;5.10;99.90;;;;;;5075793;28;20452;-69
2022/04/09 03:20:42;;;;;;;17.37;5.13;;;5.10;99.90;;;;;;5075770;28;20487;-68
2022/04/09 03:23:10;;;;;;;14.47;4.43;;;5.20;99.90;;;;;;5076300;28;20453;-69
2022/04/09 03:25:37;;;;;;;11.67;3.67;;;5.20;99.90;;;;;;5075842;28;20543;-69
2022/04/09 03:28:04;;;;;;;8.90;4.20;;;5.20;99.90;;;;;;5075726;28;20444;-69
2022/04/09 03:30:31;;;;;;;19.30;4.43;;;5.20;99.90;;;;;;5075689;28;20474;-68
2022/04/09 03:32:57;;;;;;;12.23;4.90;;;5.30;99.90;;;;;;5076173;28;20449;-68
2022/04/09 03:35:24;;;;;;;16.90;4.00;;;5.20;99.90;;;;;;5075625;28;20895;-68
2022/04/09 03:37:51;;;;;;;19.00;4.37;;;5.20;99.90;;;;;;5076498;28;20441;-68
2022/04/09 03:40:19;;;;;;;10.50;4.17;;;5.30;99.90;;;;;;5076608;28;20449;-69
2022/04/09 03:42:46;;;;;;;14.37;4.10;;;5.20;99.90;;;;;;5075627;28;20824;-69
2022/04/09 03:45:12;;;;;;;11.37;3.73;;;5.20;99.90;;;;;;5075586;28;20445;-69
2022/04/09 03:47:39;;;;;;;11.37;4.10;;;5.20;99.90;;;;;;5075440;28;20456;-69
2022/04/09 03:50:06;;;;;;;12.20;4.57;;;5.20;99.90;;;;;;5074920;28;20967;-69
2022/04/09 03:52:33;;;;;;;12.17;3.70;;;5.20;99.90;;;;;;5075235;28;20469;-69
2022/04/09 03:55:00;;;;;;;21.43;5.03;;;5.20;99.90;;;;;;5075127;28;20480;-69
2022/04/09 03:57:28;;;;;;;8.30;3.40;;;5.20;99.90;;;;;;5075228;28;20452;-69
2022/04/09 03:59:57;;;;;;;10.60;4.63;;;5.20;99.90;;;;;;5075204;28;20452;-69
2022/04/09 04:02:23;;;;;;;18.77;3.53;;;5.20;99.90;;;;;;5074760;28;20476;-68
2022/04/09 04:04:50;;;;;;;18.10;4.70;;;5.30;99.90;;;;;;5074931;28;20951;-69
2022/04/09 04:07:22;;;;;;;16.23;5.87;;;5.30;99.90;;;;;;5075030;28;20452;-69
2022/04/09 04:09:49;;;;;;;14.50;3.63;;;5.30;99.90;;;;;;5075308;28;20441;-68
2022/04/09 04:12:16;;;;;;;7.57;3.30;;;5.30;99.90;;;;;;5074846;28;20469;-68
2022/04/09 04:14:44;;;;;;;19.33;3.87;;;5.30;99.90;;;;;;5074778;28;20538;-69
2022/04/09 04:17:11;;;;;;;13.43;3.83;;;5.30;99.90;;;;;;5074744;28;20452;-69
2022/04/09 04:19:39;;;;;;;17.43;3.93;;;5.30;99.90;;;;;;5074675;28;20457;-69
2022/04/09 04:22:07;;;;;;;16.90;4.43;;;5.30;99.90;;;;;;5074127;28;20472;-69
2022/04/09 04:24:37;;;;;;;12.03;3.10;;;5.30;99.90;;;;;;5074668;28;20447;-69
2022/04/09 04:27:04;;;;;;;13.20;3.80;;;5.30;99.90;;;;;;5074572;28;20535;-69
2022/04/09 04:29:31;;;;;;;12.93;4.20;;;5.30;99.90;;;;;;5074633;28;20479;-69
2022/04/09 04:31:59;;;;;;;16.87;4.67;;;5.20;99.90;;;;;;5074428;28;20477;-69
2022/04/09 04:34:26;;;;;;;14.67;4.10;;;5.20;99.90;;;;;;5074393;28;20456;-69
2022/04/09 04:36:53;;;;;;;16.43;4.57;;;5.20;99.90;;;;;;5074395;28;20456;-69
2022/04/09 04:39:20;;;;;;;18.37;4.10;;;5.20;99.90;;;;;;5074067;28;20456;-69
2022/04/09 04:41:46;;;;;;;18.23;4.80;;;5.20;99.90;;;;;;5074238;28;20469;-69
2022/04/09 04:44:13;;;;;;;17.13;3.40;;;5.10;99.90;;;;;;5074493;28;20433;-68
2022/04/09 04:46:41;;;;;;;14.67;3.30;;;5.10;99.90;;;;;;5074343;28;20963;-69
2022/04/09 04:49:09;;;;;;;20.30;4.00;;;5.20;99.90;;;;;;5074374;28;20552;-69
2022/04/09 04:51:36;;;;;;;11.80;3.97;;;5.20;99.90;;;;;;5074007;28;20843;-69
2022/04/09 04:54:03;;;;;;;12.70;3.57;;;5.10;99.90;;;;;;5074105;28;20444;-69
2022/04/09 04:56:30;;;;;;;10.50;3.37;;;5.10;99.90;;;;;;5073982;28;20488;-69
2022/04/09 04:58:57;;;;;;;15.10;4.30;;;5.10;99.90;;;;;;5073756;28;20490;-69
2022/04/09 05:01:24;;;;;;;15.87;3.90;;;5.10;99.90;;;;;;5073983;28;20461;-69
2022/04/09 05:03:51;;;;;;;21.00;4.67;;;5.10;99.90;;;;;;5073940;28;20472;-69
2022/04/09 05:06:19;;;;;;;11.03;3.13;;;5.10;99.90;;;;;;5073567;28;20475;-69
2022/04/09 05:08:45;;;;;;;15.00;4.00;;;5.20;99.90;;;;;;5073733;28;20445;-68
2022/04/09 05:11:12;;;;;;;18.37;5.60;;;5.10;99.90;;;;;;5074096;28;20477;-69
2022/04/09 05:13:39;;;;;;;10.87;3.60;;;5.20;99.90;;;;;;5074049;28;20821;-69
2022/04/09 05:16:06;;;;;;;15.10;4.30;;;5.20;99.90;;;;;;5073789;28;20480;-69
2022/04/09 05:18:33;;;;;;;11.90;3.90;;;5.20;99.90;;;;;;5073691;28;20456;-69
2022/04/09 05:21:00;;;;;;;12.67;4.20;;;5.20;99.90;;;;;;5073377;28;20866;-69
2022/04/09 05:23:28;;;;;;;16.57;3.90;;;5.20;99.90;;;;;;5073704;28;20487;-68
2022/04/09 05:25:55;;;;;;;14.77;4.27;;;5.30;99.90;;;;;;5073939;28;20449;-68
2022/04/09 05:28:22;;;;;;;11.40;4.03;;;5.20;99.90;;;;;;5073610;28;20444;-69
2022/04/09 05:30:50;;;;;;;10.07;3.60;;;5.20;99.90;;;;;;5073653;28;20840;-68
2022/04/09 05:33:17;;;;;;;13.57;4.17;;;5.20;99.90;;;;;;5073692;28;20555;-68
2022/04/09 05:35:43;;;;;;;18.13;4.53;;;5.20;99.90;;;;;;5072852;28;20468;-68
2022/04/09 05:38:10;;;;;;;16.43;4.33;;;5.20;99.90;;;;;;5073381;28;20955;-68
2022/04/09 05:40:39;;;;;;;13.33;4.23;;;5.30;99.90;;;;;;5073431;28;20453;-69
2022/04/09 05:43:06;;;;;;;14.17;4.00;;;5.30;99.90;;;;;;5073261;28;20821;-69
2022/04/09 05:45:33;;;;;;;13.67;4.90;;;5.40;99.90;;;;;;5073305;28;20472;-69
2022/04/09 05:48:00;;;;;;;16.93;4.00;;;5.30;99.90;;;;;;5073534;28;20460;-69
2022/04/09 05:50:27;;;;;;;14.70;4.40;;;5.30;99.90;;;;;;5073224;28;20445;-69
2022/04/09 05:52:54;;;;;;;16.10;4.70;;;5.40;99.90;;;;;;5073574;28;20449;-69
2022/04/09 05:55:21;;;;;;;12.80;5.53;;;5.40;99.90;;;;;;5073361;28;20511;-68
2022/04/09 05:57:49;;;;;;;16.67;4.30;;;5.40;99.90;;;;;;5073431;28;20861;-68
2022/04/09 06:00:17;;;;;;;12.00;3.73;;;5.50;99.90;;;;;;5073268;28;20447;-69
2022/04/09 06:02:44;;;;;;;18.30;5.43;;;5.50;99.90;;;;;;5073327;28;20465;-69
2022/04/09 06:05:11;;;;;;;11.33;4.20;;;5.50;99.90;;;;;;5073208;28;20448;-69
2022/04/09 06:07:37;;;;;;;17.40;4.87;;;5.60;99.90;;;;;;5073225;28;20535;-68
2022/04/09 06:10:06;;;;;;;13.93;5.43;;;5.60;99.90;;;;;;5073184;28;20448;-69
2022/04/09 06:12:33;;;;;;;12.40;4.60;;;5.60;99.90;;;;;;5073139;28;20464;-68
2022/04/09 06:15:02;;;;;;;15.13;4.47;;;5.60;99.90;;;;;;5072913;28;20448;-68
2022/04/09 06:17:29;;;;;;;12.70;4.43;;;5.60;99.90;;;;;;5073142;28;20425;-69
2022/04/09 06:19:56;;;;;;;17.10;5.50;;;5.70;99.90;;;;;;5072672;28;20467;-68
2022/04/09 06:22:23;;;;;;;10.93;4.93;;;5.70;99.90;;;;;;5072886;28;20481;-69
2022/04/09 06:24:49;;;;;;;10.00;4.67;;;5.80;99.90;;;;;;5073028;28;20451;-69
2022/04/09 06:27:16;;;;;;;15.83;4.70;;;5.80;99.90;;;;;;5072907;28;20440;-69
2022/04/09 06:29:43;;;;;;;20.57;6.03;;;5.80;99.90;;;;;;5072628;28;20449;-69
2022/04/09 06:32:11;;;;;;;13.30;5.57;;;5.90;99.90;;;;;;5072871;28;20538;-69
2022/04/09 06:34:39;;;;;;;15.70;4.67;;;6.00;99.90;;;;;;5073015;28;20479;-69
2022/04/09 06:37:05;;;;;;;15.43;5.17;;;6.10;99.90;;;;;;5073020;28;20491;-69
2022/04/09 06:39:32;;;;;;;15.57;4.90;;;6.20;99.90;;;;;;5072850;28;20451;-69
2022/04/09 06:41:59;;;;;;;21.37;5.27;;;6.40;99.90;;;;;;5072712;28;20471;-69
2022/04/09 06:44:25;;;;;;;12.40;4.80;;;6.40;99.90;;;;;;5072856;28;20448;-69
2022/04/09 06:46:52;;;;;;;17.30;4.50;;;6.50;99.90;;;;;;5076141;28;20788;-69
2022/04/09 06:49:20;;;;;;;17.47;4.90;;;6.60;99.90;;;;;;5076714;28;20486;-68
2022/04/09 06:51:48;;;;;;;13.57;5.97;;;6.60;99.90;;;;;;5076477;28;20999;-68
2022/04/09 06:54:15;;;;;;;16.53;5.43;;;6.60;99.90;;;;;;5076995;28;20974;-68
2022/04/09 06:56:42;;;;;;;12.53;4.50;;;6.60;99.90;;;;;;5076681;28;20830;-68
2022/04/09 06:59:09;;;;;;;19.50;5.70;;;6.60;99.90;;;;;;5076222;28;20905;-69
2022/04/09 07:01:35;;;;;;;20.33;5.07;;;6.70;99.90;;;;;;5076265;28;20476;-67
2022/04/09 07:04:03;;;;;;;16.37;4.47;;;6.70;99.90;;;;;;5076237;28;20440;-67
2022/04/09 07:06:31;;;;;;;13.90;4.57;;;6.70;99.90;;;;;;5076288;28;20509;-68
2022/04/09 07:08:58;;;;;;;20.50;4.63;;;6.70;99.90;;;;;;5076145;28;20449;-68
2022/04/09 07:11:26;;;;;;;9.80;4.47;;;6.60;99.90;;;;;;5076110;28;20472;-68
2022/04/09 07:13:53;;;;;;;15.93;5.03;;;6.60;99.90;;;;;;5076092;28;20539;-68
2022/04/09 07:16:20;;;;;;;10.13;5.00;;;6.80;99.90;;;;;;5076225;28;20479;-69
2022/04/09 07:18:47;;;;;;;14.13;5.13;;;6.90;99.90;;;;;;5075769;28;20944;-68
2022/04/09 07:21:14;;;;;;;14.73;4.30;;;6.90;99.90;;;;;;5075918;28;20464;-69
2022/04/09 07:23:42;;;;;;;10.70;4.23;;;7.00;99.90;;;;;;5075993;28;20444;-69
2022/04/09 07:26:09;;;;;;;13.80;4.07;;;7.10;99.90;;;;;;5077570;28;20448;-69
2022/04/09 07:28:36;;;;;;;15.40;4.63;;;7.10;99.90;;;;;;5076505;28;20479;-69
2022/04/09 07:31:02;;;;;;;8.70;5.13;;;7.10;99.90;;;;;;5075707;28;20504;-68
2022/04/09 07:33:29;;;;;;;16.50;5.03;;;7.00;99.90;;;;;;5075903;28;20452;-68
2022/04/09 07:35:56;;;;;;;9.83;4.60;;;7.00;99.90;;;;;;5075654;28;20521;-67
2022/04/09 07:38:23;;;;;;;22.20;5.10;;;7.10;99.90;;;;;;5075600;28;20453;-67
2022/04/09 07:40:53;;;;;;;12.40;4.17;;;7.30;99.90;;;;;;5075526;28;20843;-68
2022/04/09 07:43:20;;;;;;;12.53;3.80;;;7.40;99.90;;;;;;5075860;28;20445;-68
2022/04/09 07:45:47;;;;;;;16.67;5.17;;;7.50;99.90;;;;;;5075236;28;20915;-68
2022/04/09 07:48:15;;;;;;;14.03;3.80;;;7.60;99.90;;;;;;5075518;28;20439;-67
2022/04/09 07:50:41;;;;;;;11.07;4.00;;;7.70;99.90;;;;;;5075612;28;20433;-67
2022/04/09 07:53:09;;;;;;;16.33;4.23;;;7.80;99.90;;;;;;5075388;28;20815;-67
2022/04/09 07:55:36;;;;;;;9.30;3.80;;;7.80;99.90;;;;;;5074823;28;20924;-68
2022/04/09 07:58:06;;;;;;;18.13;3.80;;;7.90;99.90;;;;;;5074081;28;20977;-67
2022/04/09 08:00:33;;;;;;;16.50;4.10;;;8.10;99.90;;;;;;5075198;28;20444;-68
2022/04/09 08:03:00;;;;;;;7.00;3.07;;;8.20;99.90;;;;;;5075085;28;20463;-66
2022/04/09 08:05:27;;;;;;;16.13;4.20;;;8.30;99.60;;;;;;5074726;28;20964;-66
2022/04/09 08:07:54;;;;;;;22.20;5.43;;;8.30;99.90;;;;;;5074984;28;20436;-68
2022/04/09 08:10:21;;;;;;;10.80;4.03;;;8.50;99.40;;;;;;5074918;28;20456;-68
2022/04/09 08:12:49;;;;;;;11.37;3.80;;;8.50;99.10;;;;;;5075015;28;20495;-67
2022/04/09 08:15:18;;;;;;;10.77;3.27;;;8.60;98.60;;;;;;5074824;28;20456;-67
2022/04/09 08:17:46;;;;;;;17.20;3.63;;;8.60;98.10;;;;;;5074670;28;21009;-67
2022/04/09 08:20:14;;;;;;;11.90;3.10;;;8.60;97.90;;;;;;5074508;28;20495;-67
2022/04/09 08:22:41;;;;;;;12.30;3.43;;;8.60;98.00;;;;;;5075076;28;20855;-68
2022/04/09 08:25:09;;;;;;;17.23;3.27;;;8.80;97.50;;;;;;5076045;28;20476;-67
2022/04/09 08:27:36;;;;;;;8.93;3.00;;;9.10;97.60;;;;;;5074953;28;20437;-68
2022/04/09 08:30:04;;;;;;;13.00;3.43;;;9.20;96.20;;;;;;5074253;28;20908;-68
2022/04/09 08:32:32;;;;;;;8.70;3.40;;;9.30;96.30;;;;;;5074308;28;20543;-67
2022/04/09 08:35:00;;;;;;;7.87;3.53;;;9.20;95.00;;;;;;5074523;28;20444;-67
2022/04/09 08:37:26;;;;;;;17.37;4.10;;;9.10;95.70;;;;;;5074196;28;20473;-67
2022/04/09 08:39:54;;;;;;;7.27;2.10;;;9.10;96.20;;;;;;5074327;28;20452;-67
2022/04/09 08:42:22;;;;;;;9.33;2.60;;;9.20;95.30;;;;;;5074579;28;20467;-67
2022/04/09 08:44:49;;;;;;;7.17;2.33;;;9.40;95.20;;;;;;5074209;28;20502;-68
2022/04/09 08:47:16;;;;;;;8.53;2.60;;;9.30;94.70;;;;;;5074178;28;20538;-68
2022/04/09 08:49:46;;;;;;;13.83;3.00;;;9.30;93.90;;;;;;5074169;28;20480;-68
2022/04/09 08:52:14;;;;;;;9.40;2.57;;;9.20;94.10;;;;;;5074035;28;20469;-68
2022/04/09 08:54:42;;;;;;;11.57;2.77;;;9.30;95.00;;;;;;5074044;28;20452;-69
2022/04/09 08:57:09;;;;;;;13.33;3.20;;;9.50;96.10;;;;;;5073917;28;20485;-69
2022/04/09 08:59:36;;;;;;;14.40;3.07;;;9.70;94.40;;;;;;5073918;28;20452;-69
2022/04/09 09:02:04;;;;;;;12.77;3.60;;;9.60;93.50;;;;;;5074031;28;20514;-72
2022/04/09 09:04:31;;;;;;;10.20;2.77;;;9.50;91.60;;;;;;5074246;28;20440;-68
2022/04/09 09:07:17;;;;;;;7.30;3.10;;;9.30;92.40;;;;;;5073948;28;20448;-69
2022/04/09 09:09:44;;;;;;;10.67;3.80;;;9.10;93.50;;;;;;5073887;28;20456;-68
2022/04/09 09:12:12;;;;;;;8.00;2.87;;;9.00;93.40;;;;;;5073429;28;21001;-68
2022/04/09 09:14:46;;;;;;;7.37;3.30;;;8.90;94.20;;;;;;5073492;28;20460;-68
2022/04/09 09:17:13;;;;;;;5.60;2.50;;;9.00;94.60;;;;;;5073559;28;20476;-67
2022/04/09 09:19:42;;;;;;;9.87;3.03;;;9.20;93.40;;;;;;5073388;28;20468;-67
2022/04/09 09:22:11;;;;;;;10.67;4.03;;;9.20;92.70;;;;;;5073224;28;21010;-67
2022/04/09 09:24:37;;;;;;;14.57;3.70;;;9.10;91.10;;;;;;5073626;28;20791;-67
2022/04/09 09:27:06;;;;;;;8.00;3.70;;;9.20;90.80;;;;;;5073503;28;20436;-68
2022/04/09 09:29:36;;;;;;;8.60;3.20;;;9.40;90.80;;;;;;5073100;28;20952;-68
2022/04/09 09:32:05;;;;;;;7.70;3.10;;;9.40;91.00;;;;;;5073634;28;20563;-68
2022/04/09 09:34:32;;;;;;;12.00;3.63;;;9.50;92.30;;;;;;5073435;28;20452;-69
2022/04/09 09:36:59;;;;;;;7.47;3.20;;;9.70;91.70;;;;;;5073381;28;20476;-68
2022/04/09 09:39:33;;;;;;;7.30;3.40;;;9.90;91.90;;;;;;5073550;28;20864;-68
2022/04/09 09:42:03;;;;;;;10.80;2.47;;;10.00;86.90;;;;;;5073350;28;20480;-68
2022/04/09 09:44:32;;;;;;;5.40;2.87;;;9.80;88.30;;;;;;5073350;28;20452;-68
2022/04/09 09:47:06;;;;;;;12.43;3.00;;;9.80;88.70;;;;;;5073099;28;21016;-72
2022/04/09 09:49:38;;;;;;;11.07;3.10;;;9.90;87.30;;;;;;5073660;28;20439;-73
2022/04/09 09:52:08;;;;;;;10.33;4.23;;;10.10;86.80;;;;;;5073308;28;20822;-73
2022/04/09 09:54:55;;;;;;;6.00;3.10;;;10.20;85.10;;;;;;5073212;28;20437;-73
2022/04/09 09:57:24;;;;;;;5.60;2.97;;;10.40;84.30;;;;;;5073508;28;20508;-74
2022/04/09 09:59:52;;;;;;;6.13;2.80;;;10.30;81.90;;;;;;5073259;28;20452;-72
2022/04/09 10:02:21;;;;;;;4.70;2.43;;;10.30;82.80;;;;;;5073634;28;20480;-72
2022/04/09 10:04:48;;;;;;;11.50;3.60;;;10.20;80.20;;;;;;5074543;28;20455;-71
2022/04/09 10:07:16;;;;;;;11.13;2.90;;;10.20;82.40;;;;;;5073324;28;20449;-71
2022/04/09 10:09:44;;;;;;;9.27;3.17;;;10.10;81.00;;;;;;5073165;28;20455;-68
2022/04/09 10:12:13;;;;;;;10.20;2.77;;;10.30;83.10;;;;;;5072969;28;21002;-67
2022/04/09 10:14:42;;;;;;;9.43;2.90;;;10.70;79.60;;;;;;5073286;28;20798;-69
2022/04/09 10:17:09;;;;;;;5.10;2.60;;;11.10;76.30;;;;;;5072676;28;20850;-68
2022/04/09 10:19:42;;;;;;;10.30;2.70;;;11.20;74.20;;;;;;5072750;28;20967;-68
2022/04/09 10:22:11;;;;;;;9.40;2.97;;;11.00;76.10;;;;;;5076623;28;20469;-67
2022/04/09 10:24:39;;;;;;;6.30;2.53;;;10.60;76.20;;;;;;5076923;28;20498;-69
2022/04/09 10:27:08;;;;;;;8.77;2.60;;;10.20;77.30;;;;;;5076944;28;20535;-68
2022/04/09 10:29:48;;;;;;;8.07;3.90;;;10.10;79.40;;;;;;5076791;28;20892;-67
2022/04/09 10:32:42;;;;;;;4.53;2.93;;;9.80;85.70;;;;;;5076432;28;20500;-68
2022/04/09 10:35:24;;;;;;;6.27;2.90;;;9.60;84.70;;;;;;5077293;28;20797;-68
2022/04/09 10:38:19;;;;;;;5.47;3.90;;;10.00;85.10;;;;;;5076746;28;20507;-68
2022/04/09 10:41:27;;;;;;;6.97;3.40;;;10.90;81.40;;;;;;5076903;28;20464;-68
2022/04/09 10:43:59;;;;;;;6.37;3.30;;;11.90;79.80;;;;;;5076665;28;20440;-68
2022/04/09 10:46:35;;;;;;;5.80;2.40;;;12.50;69.30;;;;;;5076429;28;21057;-69
2022/04/09 10:49:22;;;;;;;6.73;2.53;;;13.10;66.50;;;;;;5076335;28;20428;-69
2022/04/09 10:52:03;;;;;;;6.47;2.70;;;13.30;60.50;;;;;;5076189;28;20473;-69
2022/04/09 10:54:30;;;;;;;5.60;2.30;;;12.90;61.60;;;;;;5076426;28;20405;-68
2022/04/09 10:57:07;;;;;;;10.53;2.63;;;12.30;64.30;;;;;;5076196;28;20492;-68
2022/04/09 10:59:37;;;;;;;6.33;2.93;;;12.00;65.70;;;;;;5076456;28;20787;-69
2022/04/09 11:02:05;;;;;;;5.67;2.23;;;11.70;62.60;;;;;;5076536;28;20504;-69
2022/04/09 11:04:42;;;;;;;4.73;1.90;;;11.50;66.20;;;;;;5076140;28;20467;-69
2022/04/09 11:07:14;;;;;;;2.87;1.37;;;11.40;73.80;;;;;;5076273;28;20429;-70
2022/04/09 11:09:49;;;;;;;2.80;1.60;;;11.50;76.00;;;;;;5076271;28;20429;-70
2022/04/09 11:12:18;;;;;;;8.03;1.93;;;11.60;75.70;;;;;;5076106;28;20846;-70
2022/04/09 11:14:49;;;;;;;8.60;2.07;;;11.70;76.70;;;;;;5076678;28;20834;-67
2022/04/09 11:17:17;;;;;;;5.37;2.83;;;11.70;76.80;;;;;;5076477;28;20541;-70
2022/04/09 11:19:45;;;;;;;22.57;3.27;;;11.70;75.50;;;;;;5075596;28;20507;-71
2022/04/09 11:22:13;;;;;;;4.00;1.97;;;11.80;77.70;;;;;;5076234;28;20468;-70
2022/04/09 11:24:40;;;;;;;5.17;2.13;;;12.50;78.90;;;;;;5075977;28;20463;-69
2022/04/09 11:27:07;;;;;;;2.50;1.73;;;13.90;76.40;;;;;;5075393;28;20452;-69
2022/04/09 11:29:34;;;;;;;4.13;1.80;;;15.00;69.70;;;;;;5075828;28;20449;-69
2022/04/09 11:32:03;;;;;;;3.97;1.83;;;15.70;60.50;;;;;;5075158;28;20825;-73
2022/04/09 11:34:46;;;;;;;3.70;1.63;;;15.80;56.50;;;;;;5077501;28;20860;-73
2022/04/09 11:37:13;;;;;;;3.93;1.67;;;15.40;55.00;;;;;;5076058;28;20522;-73
2022/04/09 11:39:40;;;;;;;4.17;1.70;;;14.80;57.00;;;;;;5076040;28;20914;-74
2022/04/09 11:42:08;;;;;;;4.47;3.00;;;14.40;57.80;;;;;;5075558;28;20473;-70
2022/04/09 11:44:38;;;;;;;4.13;1.60;;;14.30;60.20;;;;;;5075432;28;20790;-72
2022/04/09 11:47:12;;;;;;;4.23;2.20;;;14.00;58.90;;;;;;5075515;28;20484;-72
2022/04/09 11:49:39;;;;;;;5.23;4.30;;;13.50;59.90;;;;;;5076473;28;20456;-71
2022/04/09 11:52:07;;;;;;;28.57;24.23;;;13.00;63.00;;;;;;5075823;28;20479;-72
2022/04/09 11:54:34;;;;;;;6.93;3.67;;;12.70;64.50;;;;;;5075391;28;20972;-72
2022/04/09 11:57:03;;;;;;;4.50;2.80;;;12.40;64.50;;;;;;5075873;28;20476;-72
2022/04/09 11:59:30;;;;;;;8.40;1.87;;;12.20;65.10;;;;;;5075728;28;20448;-72
2022/04/09 12:01:58;;;;;;;4.13;1.70;;;12.00;63.30;;;;;;5075532;28;20479;-71
2022/04/09 12:04:34;;;;;;;12.83;2.70;;;11.80;64.70;;;;;;5075242;28;20964;-71
2022/04/09 12:07:02;;;;;;;3.50;1.17;;;11.70;64.10;;;;;;5075446;28;20498;-71
2022/04/09 12:09:30;;;;;;;2.27;1.00;;;11.50;61.50;;;;;;5075383;28;20433;-72
2022/04/09 12:12:01;;;;;;;2.00;1.10;;;11.30;60.00;;;;;;5075079;28;20518;-72
2022/04/09 12:14:28;;;;;;;4.40;2.63;;;11.30;58.10;;;;;;5074760;28;20433;-72
2022/04/09 12:16:56;;;;;;;2.10;1.20;;;11.80;58.10;;;;;;5075274;28;20475;-72
2022/04/09 12:19:32;;;;;;;5.90;1.50;;;13.20;57.20;;;;;;5075613;28;20551;-72
2022/04/09 12:22:13;;;;;;;2.53;1.20;;;15.00;53.30;;;;;;5075167;28;20464;-72
2022/04/09 12:24:51;;;;;;;2.30;0.87;;;16.70;44.50;;;;;;5075955;28;20435;-72
2022/04/09 12:27:18;;;;;;;2.93;0.90;;;17.70;40.90;;;;;;5075836;28;20501;-73
2022/04/09 12:29:52;;;;;;;2.57;1.67;;;18.30;38.30;;;;;;5075327;28;20445;-73
2022/04/09 12:32:23;;;;;;;6.13;1.20;;;18.00;38.70;;;;;;5075046;28;20571;-72
2022/04/09 12:35:09;;;;;;;2.50;1.40;;;16.70;38.90;;;;;;5074659;28;20524;-72
2022/04/09 12:37:46;;;;;;;2.30;1.23;;;15.10;41.90;;;;;;5075094;28;20468;-72
2022/04/09 12:40:15;;;;;;;1.30;1.03;;;14.00;45.20;;;;;;5074924;28;20809;-72
2022/04/09 12:42:42;;;;;;;1.07;0.87;;;13.00;46.70;;;;;;5074890;28;20474;-72
2022/04/09 12:45:13;;;;;;;2.67;2.27;;;12.40;47.30;;;;;;5074263;28;20498;-71
2022/04/09 12:47:40;;;;;;;2.60;1.33;;;12.10;48.60;;;;;;5074293;28;20519;-71
2022/04/09 12:50:20;;;;;;;3.50;1.90;;;12.20;48.70;;;;;;5074468;28;20445;-71
2022/04/09 12:52:47;;;;;;;2.33;1.20;;;13.00;49.00;;;;;;5074744;28;20472;-72
2022/04/09 12:55:17;;;;;;;4.00;1.30;;;14.50;47.10;;;;;;5074730;28;20448;-72
2022/04/09 12:57:44;;;;;;;2.07;0.90;;;15.70;41.40;;;;;;5074776;28;20581;-72